createdAt,value
2023-04-18T00:02:58.819Z,12.71
2023-04-18T00:06:13.015Z,12.67
2023-04-18T00:09:30.023Z,12.65
2023-04-18T00:12:51.683Z,12.46
2023-04-18T00:20:21.208Z,12.56
2023-04-18T00:24:31.043Z,12.48
2023-04-18T00:28:24.560Z,12.51
2023-04-18T00:35:35.577Z,12.41
2023-04-18T00:39:20.688Z,12.35
2023-04-18T00:42:43.975Z,12.21
2023-04-18T00:46:01.742Z,12.39
2023-04-18T00:49:32.158Z,12.45
2023-04-18T00:52:45.877Z,12.34
2023-04-18T00:55:54.279Z,12.43
2023-04-18T00:59:02.846Z,12.43
2023-04-18T01:02:11.966Z,12.43
2023-04-18T01:05:15.293Z,12.40
2023-04-18T01:08:22.298Z,12.40
2023-04-18T01:11:26.658Z,12.43
2023-04-18T01:14:29.422Z,12.44
2023-04-18T01:17:35.181Z,12.45
2023-04-18T01:20:44.176Z,12.45
2023-04-18T01:23:53.432Z,12.45
2023-04-18T01:31:00.719Z,12.52
2023-04-18T01:38:01.394Z,12.41
2023-04-18T01:41:19.508Z,12.42
2023-04-18T01:44:41.379Z,12.41
2023-04-18T01:48:17.641Z,12.40
2023-04-18T01:51:34.928Z,12.35
2023-04-18T01:54:42.200Z,12.41
2023-04-18T01:57:51.916Z,12.42
2023-04-18T02:01:07.597Z,12.29
2023-04-18T02:04:17.136Z,12.20
2023-04-18T02:07:28.366Z,12.41
2023-04-18T02:10:32.358Z,12.37
2023-04-18T02:13:40.985Z,12.40
2023-04-18T02:16:46.796Z,12.39
2023-04-18T02:19:52.852Z,12.40
2023-04-18T02:22:56.232Z,12.34
2023-04-18T02:26:08.611Z,12.34
2023-04-18T02:29:14.672Z,12.33
2023-04-18T02:32:21.544Z,12.41
2023-04-18T02:35:29.822Z,12.35
2023-04-18T02:38:37.064Z,12.32
2023-04-18T02:41:44.136Z,12.37
2023-04-18T02:44:49.924Z,12.32
2023-04-18T02:47:57.793Z,12.34
2023-04-18T02:51:18.041Z,12.39
2023-04-18T02:54:27.767Z,12.22
2023-04-18T02:57:35.239Z,12.29
2023-04-18T03:00:47.062Z,12.28
2023-04-18T03:03:51.423Z,12.33
2023-04-18T03:06:56.937Z,12.18
2023-04-18T03:10:11.125Z,12.23
2023-04-18T03:13:24.677Z,12.28
2023-04-18T03:16:36.671Z,12.17
2023-04-18T03:19:47.505Z,12.20
2023-04-18T03:22:58.206Z,12.19
2023-04-18T03:26:13.532Z,12.09
2023-04-18T03:33:00.113Z,12.15
2023-04-18T03:36:13.089Z,11.89
2023-04-18T03:39:16.784Z,12.16
2023-04-18T03:42:21.075Z,12.30
2023-04-18T03:45:34.533Z,12.23
2023-04-18T03:48:50.347Z,11.92
2023-04-18T03:52:03.301Z,11.93
2023-04-18T03:55:12.567Z,11.98
2023-04-18T03:58:23.878Z,11.93
2023-04-18T04:01:29.809Z,12.08
2023-04-18T04:04:36.668Z,12.03
2023-04-18T04:07:40.023Z,11.99
2023-04-18T04:10:45.241Z,11.91
2023-04-18T04:13:51.609Z,12.10
2023-04-18T04:23:27.730Z,11.94
2023-04-18T04:26:31.107Z,11.81
2023-04-18T04:29:38.931Z,11.87
2023-04-18T04:32:48.343Z,11.84
2023-04-18T04:35:51.184Z,11.76
2023-04-18T04:38:56.297Z,11.73
2023-04-18T04:42:04.763Z,11.76
2023-04-18T04:45:10.058Z,11.89
2023-04-18T04:48:13.010Z,11.96
2023-04-18T04:51:24.190Z,11.79
2023-04-18T04:54:27.225Z,11.79
2023-04-18T04:57:33.983Z,11.56
2023-04-18T05:00:39.509Z,11.64
2023-04-18T05:03:43.671Z,11.57
2023-04-18T05:06:47.719Z,11.57
2023-04-18T05:09:59.697Z,11.61
2023-04-18T05:13:05.444Z,11.59
2023-04-18T05:16:20.805Z,11.73
2023-04-18T05:19:24.562Z,11.78
2023-04-18T05:22:32.108Z,11.68
2023-04-18T05:25:38.531Z,11.85
2023-04-18T05:28:45.360Z,11.90
2023-04-18T05:35:17.157Z,11.76
2023-04-18T05:38:35.946Z,11.90
2023-04-18T05:41:46.497Z,12.05
2023-04-18T05:45:16.125Z,11.85
2023-04-18T05:48:49.133Z,12.18
2023-04-18T05:57:23.568Z,12.44
2023-04-18T07:14:20.247Z,13.82
2023-04-18T07:17:40.739Z,14.17
2023-04-18T07:21:27.387Z,14.34
2023-04-18T07:24:34.059Z,14.33
2023-04-18T07:27:37.440Z,14.14
2023-04-18T07:30:40.524Z,14.08
2023-04-18T07:33:43.667Z,14.27
2023-04-18T07:36:53.383Z,14.31
2023-04-18T07:39:55.958Z,14.46
2023-04-18T07:43:01.425Z,14.37
2023-04-18T07:46:16.419Z,14.40
2023-04-18T07:49:19.456Z,14.42
2023-04-18T07:52:24.890Z,14.55
2023-04-18T07:55:27.672Z,14.56
2023-04-18T07:58:32.833Z,14.86
2023-04-18T08:01:35.524Z,15.04
2023-04-18T08:04:38.054Z,14.94
2023-04-18T08:07:45.722Z,14.92
2023-04-18T08:10:58.596Z,15.07
2023-04-18T08:14:10.829Z,15.44
2023-04-18T08:22:01.200Z,14.89
2023-04-18T08:25:05.414Z,14.69
2023-04-18T08:28:15.472Z,15.03
2023-04-18T08:31:20.471Z,14.88
2023-04-18T08:34:29.589Z,14.95
2023-04-18T08:37:36.159Z,15.17
2023-04-18T08:40:50.376Z,15.26
2023-04-18T08:44:29.862Z,15.52
2023-04-18T08:47:46.144Z,15.07
2023-04-18T08:50:53.187Z,15.23
2023-04-18T08:55:24.989Z,15.53
2023-04-18T09:03:02.632Z,15.99
2023-04-18T09:12:37.671Z,16.61
2023-04-18T09:19:41.536Z,16.59
2023-04-18T09:23:07.270Z,16.52
2023-04-18T09:29:46.291Z,16.34
2023-04-18T09:32:59.418Z,16.26
2023-04-18T09:36:23.741Z,16.48
2023-04-18T09:53:35.951Z,16.63
2023-04-18T09:57:11.044Z,16.59
2023-04-18T10:00:30.389Z,16.93
2023-04-18T10:12:34.080Z,16.50
2023-04-18T10:16:21.227Z,16.99
2023-04-18T10:32:19.761Z,17.76
2023-04-18T10:38:58.285Z,17.64
2023-04-18T10:42:33.203Z,17.53
2023-04-18T10:46:42.418Z,17.78
2023-04-18T10:50:08.170Z,17.55
2023-04-18T10:53:46.087Z,17.56
2023-04-18T10:57:34.402Z,17.53
2023-04-18T11:00:46.942Z,17.57
2023-04-18T11:03:58.888Z,17.72
2023-04-18T11:07:18.356Z,18.21
2023-04-18T11:10:39.880Z,18.23
2023-04-18T11:15:17.796Z,18.40
2023-04-18T11:19:04.838Z,18.40
2023-04-18T11:22:08.866Z,18.22
2023-04-18T11:25:15.329Z,17.91
2023-04-18T11:28:23.225Z,17.97
2023-04-18T11:31:29.012Z,17.89
2023-04-18T11:37:57.968Z,17.75
2023-04-18T11:41:39.060Z,17.94
2023-04-18T11:44:50.697Z,18.28
2023-04-18T11:48:11.656Z,18.07
2023-04-18T11:51:52.960Z,17.98
2023-04-18T11:55:01.772Z,17.86
2023-04-18T11:58:41.797Z,17.74
2023-04-18T12:02:14.413Z,17.65
2023-04-18T12:05:32.833Z,17.73
2023-04-18T12:09:21.399Z,17.75
2023-04-18T12:12:35.265Z,17.74
2023-04-18T12:15:44.986Z,17.76
2023-04-18T12:32:13.913Z,17.79
2023-04-18T12:35:46.417Z,18.53
2023-04-18T12:39:13.684Z,18.23
2023-04-18T12:42:34.686Z,18.02
2023-04-18T12:45:37.875Z,17.83
2023-04-18T12:48:53.546Z,18.03
2023-04-18T12:52:05.693Z,17.84
2023-04-18T12:55:40.192Z,17.59
2023-04-18T13:04:38.485Z,17.46
2023-04-18T13:07:50.301Z,17.40
2023-04-18T13:15:03.046Z,17.60
2023-04-18T13:18:12.613Z,17.97
2023-04-18T13:21:34.755Z,18.05
2023-04-18T13:25:36.351Z,17.87
2023-04-18T13:33:07.457Z,18.15
2023-04-18T13:36:37.903Z,17.95
2023-04-18T13:39:53.271Z,17.90
2023-04-18T13:43:30.037Z,17.90
2023-04-18T13:46:58.596Z,17.83
2023-04-18T13:50:22.191Z,18.14
2023-04-18T13:53:57.515Z,17.88
2023-04-18T13:57:17.467Z,17.88
2023-04-18T14:00:24.747Z,17.79
2023-04-18T14:03:55.110Z,17.97
2023-04-18T14:07:16.666Z,17.92
2023-04-18T14:10:39.751Z,17.91
2023-04-18T14:14:10.926Z,17.77
2023-04-18T14:17:34.360Z,18.02
2023-04-18T14:21:28.301Z,17.99
2023-04-18T14:33:00.748Z,17.99
2023-04-18T14:36:03.286Z,17.88
2023-04-18T14:40:06.389Z,17.69
2023-04-18T14:43:15.183Z,17.83
2023-04-18T14:47:38.409Z,17.91
2023-04-18T14:51:17.685Z,17.82
2023-04-18T14:59:55.795Z,17.94
2023-04-18T15:04:23.311Z,17.74
2023-04-18T15:07:15.365Z,17.64
2023-04-18T15:10:23.145Z,17.60
2023-04-18T15:13:58.091Z,17.78
2023-04-18T15:17:03.227Z,17.75
2023-04-18T15:20:16.250Z,17.62
2023-04-18T15:23:45.897Z,17.55
2023-04-18T15:30:53.047Z,17.47
2023-04-18T15:34:10.533Z,17.29
2023-04-18T15:37:18.390Z,17.26
2023-04-18T15:40:28.175Z,17.18
2023-04-18T15:43:35.351Z,17.31
2023-04-18T15:46:49.963Z,17.21
2023-04-18T15:50:28.007Z,17.27
2023-04-18T15:53:36.979Z,17.20
2023-04-18T15:56:44.827Z,17.16
2023-04-18T16:01:29.898Z,17.31
2023-04-18T16:03:42.679Z,17.13
2023-04-18T16:06:44.804Z,17.16
2023-04-18T16:09:52.227Z,17.17
2023-04-18T16:13:25.069Z,17.19
2023-04-18T16:16:30.042Z,16.96
2023-04-18T16:19:33.917Z,16.82
2023-04-18T16:22:51.469Z,16.81
2023-04-18T16:26:24.729Z,16.74
2023-04-18T16:29:45.841Z,16.77
2023-04-18T16:33:14.856Z,16.73
2023-04-18T16:36:19.956Z,16.79
2023-04-18T16:39:59.773Z,16.97
2023-04-18T16:43:24.050Z,16.84
2023-04-18T16:46:39.751Z,17.00
2023-04-18T16:49:43.663Z,16.88
2023-04-18T16:52:46.504Z,16.92
2023-04-18T16:55:52.181Z,16.91
2023-04-18T16:58:58.832Z,16.67
2023-04-18T17:02:41.373Z,16.83
2023-04-18T17:06:01.699Z,16.51
2023-04-18T17:09:30.362Z,16.56
2023-04-18T17:12:39.362Z,16.66
2023-04-18T17:16:02.980Z,16.46
2023-04-18T17:19:28.354Z,16.33
2023-04-18T17:26:04.800Z,16.37
2023-04-18T17:29:16.372Z,16.23
2023-04-18T17:32:32.975Z,16.16
2023-04-18T17:35:37.952Z,16.17
2023-04-18T17:38:51.122Z,16.22
2023-04-18T17:42:09.630Z,16.33
2023-04-18T17:45:24.086Z,16.11
2023-04-18T17:48:29.135Z,15.98
2023-04-18T17:51:50.289Z,15.88
2023-04-18T17:54:57.962Z,15.93
2023-04-18T17:58:13.754Z,15.68
2023-04-18T18:01:39.422Z,15.82
2023-04-18T18:04:49.252Z,15.55
2023-04-18T18:08:01.995Z,15.32
2023-04-18T18:11:07.419Z,15.37
2023-04-18T18:14:17.187Z,15.41
2023-04-18T18:17:22.940Z,15.51
2023-04-18T18:20:32.985Z,15.61
2023-04-18T18:23:39.324Z,15.45
2023-04-18T18:26:45.182Z,15.46
2023-04-18T18:29:54.191Z,15.58
2023-04-18T18:33:06.922Z,15.59
2023-04-18T18:36:12.088Z,15.40
2023-04-18T18:39:17.713Z,15.55
2023-04-18T18:42:21.365Z,15.62
2023-04-18T18:45:23.872Z,15.56
2023-04-18T18:48:39.477Z,15.62
2023-04-18T18:51:43.898Z,15.73
2023-04-18T18:54:47.594Z,15.72
2023-04-18T18:57:50.764Z,15.77
2023-04-18T19:00:56.808Z,15.68
2023-04-18T19:04:00.553Z,15.79
2023-04-18T19:07:06.143Z,15.79
2023-04-18T19:10:12.293Z,15.60
2023-04-18T19:13:24.409Z,15.71
2023-04-18T19:16:27.468Z,15.61
2023-04-18T19:19:37.225Z,15.49
2023-04-18T19:22:48.987Z,15.29
2023-04-18T19:26:04.942Z,15.23
2023-04-18T19:29:14.469Z,15.38
2023-04-18T19:32:21.836Z,15.24
2023-04-18T19:35:27.703Z,15.19
2023-04-18T19:38:39.384Z,15.18
2023-04-18T19:41:48.628Z,15.17
2023-04-18T19:45:08.082Z,15.19
2023-04-18T19:48:19.949Z,15.02
2023-04-18T19:51:35.345Z,15.05
2023-04-18T19:54:48.320Z,15.14
2023-04-18T19:57:57.189Z,15.02
2023-04-18T20:00:59.628Z,14.84
2023-04-18T20:04:02.991Z,15.11
2023-04-18T20:07:05.668Z,14.99
2023-04-18T20:10:09.229Z,14.89
2023-04-18T20:13:11.852Z,15.12
2023-04-18T20:16:17.361Z,14.90
2023-04-18T20:19:19.745Z,14.94
2023-04-18T20:22:26.957Z,14.72
2023-04-18T20:25:31.410Z,14.93
2023-04-18T20:28:38.007Z,14.63
2023-04-18T20:31:44.947Z,14.65
2023-04-18T20:34:52.136Z,14.70
2023-04-18T20:37:57.550Z,14.85
2023-04-18T20:41:10.994Z,14.69
2023-04-18T20:44:22.307Z,14.84
2023-04-18T20:47:29.674Z,14.80
2023-04-18T20:50:37.609Z,14.71
2023-04-18T20:53:48.960Z,14.73
2023-04-18T20:56:53.091Z,14.78
2023-04-18T21:00:10.865Z,14.69
2023-04-18T21:03:17.512Z,14.48
2023-04-18T21:06:26.442Z,14.43
2023-04-18T21:09:28.706Z,14.30
2023-04-18T21:12:35.038Z,14.35
2023-04-18T21:15:42.095Z,14.34
2023-04-18T21:18:46.692Z,14.38
2023-04-18T21:21:50.132Z,14.42
2023-04-18T21:24:53.857Z,14.43
2023-04-18T21:28:04.364Z,14.43
2023-04-18T21:31:15.854Z,14.34
2023-04-18T21:34:24.417Z,14.38
2023-04-18T21:37:29.107Z,14.21
2023-04-18T21:40:43.645Z,14.43
2023-04-18T21:43:46.123Z,14.27
2023-04-18T21:46:51.980Z,14.24
2023-04-18T21:49:56.536Z,14.13
2023-04-18T21:53:03.036Z,14.34
2023-04-18T21:56:08.561Z,14.09
2023-04-18T21:59:11.676Z,14.08
2023-04-18T22:02:17.454Z,14.09
2023-04-18T22:05:21.560Z,14.05
2023-04-18T22:08:26.534Z,14.06
2023-04-18T22:11:29.742Z,14.16
2023-04-18T22:14:34.103Z,14.03
2023-04-18T22:17:38.068Z,14.03
2023-04-18T22:20:44.803Z,14.10
2023-04-18T22:23:50.736Z,13.98
2023-04-18T22:26:54.878Z,14.00
2023-04-18T22:29:59.914Z,13.83
2023-04-18T22:33:02.605Z,13.93
2023-04-18T22:36:06.906Z,14.07
2023-04-18T22:39:34.171Z,13.83
2023-04-18T22:42:38.050Z,14.11
2023-04-18T22:45:43.624Z,13.85
2023-04-18T22:48:54.892Z,14.06
2023-04-18T22:52:00.951Z,14.00
2023-04-18T22:55:08.779Z,13.81
2023-04-18T22:58:11.765Z,13.82
2023-04-18T23:01:14.293Z,13.95
2023-04-18T23:04:23.035Z,13.98
2023-04-18T23:07:32.937Z,13.86
2023-04-18T23:10:41.594Z,13.88
2023-04-18T23:13:56.126Z,13.89
2023-04-18T23:17:01.039Z,13.88
2023-04-18T23:20:07.557Z,14.07
2023-04-18T23:23:18.872Z,13.94
2023-04-18T23:26:24.179Z,13.82
2023-04-18T23:29:31.871Z,14.03
2023-04-18T23:32:48.467Z,13.95
2023-04-18T23:35:58.292Z,13.95
2023-04-18T23:39:04.324Z,13.95
2023-04-18T23:42:13.506Z,13.83
2023-04-18T23:45:20.602Z,13.90
2023-04-18T23:48:28.245Z,13.77
2023-04-18T23:51:37.573Z,13.97
2023-04-18T23:54:42.448Z,13.96
2023-04-18T23:57:49.102Z,13.70
